sensor_id;sensor_type;location;lat;lon;timestamp;temperature;humidity
84393;DHT22;74592;48.846;2.358;2024-03-02T00:00:58;9.00;66.50
84393;DHT22;74592;48.846;2.358;2024-03-02T00:03:24;9.10;64.10
84393;DHT22;74592;48.846;2.358;2024-03-02T00:05:50;9.00;64.40
84393;DHT22;74592;48.846;2.358;2024-03-02T00:08:25;9.00;64.30
84393;DHT22;74592;48.846;2.358;2024-03-02T00:11:00;9.00;64.90
84393;DHT22;74592;48.846;2.358;2024-03-02T00:13:29;9.00;64.20
84393;DHT22;74592;48.846;2.358;2024-03-02T00:15:56;9.00;64.90
84393;DHT22;74592;48.846;2.358;2024-03-02T00:18:32;9.00;65.80
84393;DHT22;74592;48.846;2.358;2024-03-02T00:21:00;9.00;64.60
84393;DHT22;74592;48.846;2.358;2024-03-02T00:23:35;8.90;65.20
84393;DHT22;74592;48.846;2.358;2024-03-02T00:26:01;9.00;64.20
84393;DHT22;74592;48.846;2.358;2024-03-02T00:28:36;8.90;65.50
84393;DHT22;74592;48.846;2.358;2024-03-02T00:31:06;8.90;64.90
84393;DHT22;74592;48.846;2.358;2024-03-02T00:33:42;8.90;65.20
84393;DHT22;74592;48.846;2.358;2024-03-02T00:36:16;9.00;65.50
84393;DHT22;74592;48.846;2.358;2024-03-02T00:38:49;8.90;64.90
84393;DHT22;74592;48.846;2.358;2024-03-02T00:46:33;9.00;64.80
84393;DHT22;74592;48.846;2.358;2024-03-02T00:59:19;9.00;65.40
84393;DHT22;74592;48.846;2.358;2024-03-02T03:25:16;9.30;63.90
84393;DHT22;74592;48.846;2.358;2024-03-02T03:27:42;9.20;61.90
84393;DHT22;74592;48.846;2.358;2024-03-02T03:30:08;9.20;64.00
84393;DHT22;74592;48.846;2.358;2024-03-02T03:32:34;9.20;63.40
84393;DHT22;74592;48.846;2.358;2024-03-02T03:35:04;9.20;65.00
84393;DHT22;74592;48.846;2.358;2024-03-02T03:37:34;9.10;63.40
84393;DHT22;74592;48.846;2.358;2024-03-02T03:40:05;9.20;64.40
84393;DHT22;74592;48.846;2.358;2024-03-02T03:42:39;9.10;63.80
84393;DHT22;74592;48.846;2.358;2024-03-02T03:45:06;9.10;63.20
84393;DHT22;74592;48.846;2.358;2024-03-02T03:47:32;9.00;63.30
84393;DHT22;74592;48.846;2.358;2024-03-02T03:49:58;9.10;64.20
84393;DHT22;74592;48.846;2.358;2024-03-02T03:52:24;9.00;64.50
84393;DHT22;74592;48.846;2.358;2024-03-02T03:54:50;9.00;62.90
84393;DHT22;74592;48.846;2.358;2024-03-02T03:57:18;9.10;62.40
84393;DHT22;74592;48.846;2.358;2024-03-02T03:59:46;9.00;63.00
84393;DHT22;74592;48.846;2.358;2024-03-02T04:02:12;9.00;63.80
84393;DHT22;74592;48.846;2.358;2024-03-02T04:04:38;9.00;64.30
84393;DHT22;74592;48.846;2.358;2024-03-02T04:07:04;9.00;62.10
84393;DHT22;74592;48.846;2.358;2024-03-02T04:09:29;9.00;62.90
84393;DHT22;74592;48.846;2.358;2024-03-02T04:11:55;8.90;63.50
84393;DHT22;74592;48.846;2.358;2024-03-02T04:14:32;9.00;63.80
84393;DHT22;74592;48.846;2.358;2024-03-02T04:17:05;9.00;63.60
84393;DHT22;74592;48.846;2.358;2024-03-02T04:19:41;9.00;63.20
84393;DHT22;74592;48.846;2.358;2024-03-02T04:22:09;8.80;63.30
84393;DHT22;74592;48.846;2.358;2024-03-02T04:24:35;9.00;62.50
84393;DHT22;74592;48.846;2.358;2024-03-02T04:27:07;9.00;64.60
84393;DHT22;74592;48.846;2.358;2024-03-02T04:29:35;9.00;62.30
84393;DHT22;74592;48.846;2.358;2024-03-02T04:32:01;8.90;63.00
84393;DHT22;74592;48.846;2.358;2024-03-02T04:34:36;9.00;64.40
84393;DHT22;74592;48.846;2.358;2024-03-02T04:37:02;9.00;62.90
84393;DHT22;74592;48.846;2.358;2024-03-02T04:39:28;9.00;63.50
84393;DHT22;74592;48.846;2.358;2024-03-02T04:41:54;9.00;63.00
84393;DHT22;74592;48.846;2.358;2024-03-02T04:44:19;8.90;63.00
84393;DHT22;74592;48.846;2.358;2024-03-02T04:46:45;9.00;63.50
84393;DHT22;74592;48.846;2.358;2024-03-02T04:49:11;9.00;62.20
84393;DHT22;74592;48.846;2.358;2024-03-02T04:51:37;9.00;64.50
84393;DHT22;74592;48.846;2.358;2024-03-02T04:54:02;9.00;62.10
84393;DHT22;74592;48.846;2.358;2024-03-02T04:56:28;9.00;62.20
84393;DHT22;74592;48.846;2.358;2024-03-02T04:58:56;9.00;63.30
84393;DHT22;74592;48.846;2.358;2024-03-02T05:01:22;9.00;63.40
84393;DHT22;74592;48.846;2.358;2024-03-02T05:03:48;9.00;62.20
84393;DHT22;74592;48.846;2.358;2024-03-02T05:06:14;9.00;62.60
84393;DHT22;74592;48.846;2.358;2024-03-02T05:08:40;9.10;62.10
84393;DHT22;74592;48.846;2.358;2024-03-02T05:11:06;9.10;63.40
84393;DHT22;74592;48.846;2.358;2024-03-02T05:13:50;9.00;64.00
84393;DHT22;74592;48.846;2.358;2024-03-02T05:16:15;9.10;65.30
84393;DHT22;74592;48.846;2.358;2024-03-02T05:18:41;9.00;63.20
84393;DHT22;74592;48.846;2.358;2024-03-02T05:21:07;9.10;62.20
84393;DHT22;74592;48.846;2.358;2024-03-02T05:23:32;9.10;62.50
84393;DHT22;74592;48.846;2.358;2024-03-02T05:25:58;8.90;61.90
84393;DHT22;74592;48.846;2.358;2024-03-02T05:28:24;9.00;64.20
84393;DHT22;74592;48.846;2.358;2024-03-02T05:30:50;9.10;64.50
84393;DHT22;74592;48.846;2.358;2024-03-02T05:33:15;9.10;62.70
84393;DHT22;74592;48.846;2.358;2024-03-02T05:35:41;9.20;63.60
84393;DHT22;74592;48.846;2.358;2024-03-02T05:38:07;9.10;62.50
84393;DHT22;74592;48.846;2.358;2024-03-02T05:40:32;9.10;63.70
84393;DHT22;74592;48.846;2.358;2024-03-02T05:43:00;9.00;61.30
84393;DHT22;74592;48.846;2.358;2024-03-02T05:45:26;9.00;64.30
84393;DHT22;74592;48.846;2.358;2024-03-02T05:47:52;9.00;62.10
84393;DHT22;74592;48.846;2.358;2024-03-02T05:50:18;8.90;63.50
84393;DHT22;74592;48.846;2.358;2024-03-02T05:52:45;8.90;63.50
84393;DHT22;74592;48.846;2.358;2024-03-02T05:55:11;9.00;62.80
84393;DHT22;74592;48.846;2.358;2024-03-02T05:57:36;9.00;64.70
84393;DHT22;74592;48.846;2.358;2024-03-02T06:00:20;9.10;64.00
84393;DHT22;74592;48.846;2.358;2024-03-02T06:02:47;9.20;62.80
84393;DHT22;74592;48.846;2.358;2024-03-02T06:05:13;9.20;64.50
84393;DHT22;74592;48.846;2.358;2024-03-02T06:07:40;9.30;63.30
84393;DHT22;74592;48.846;2.358;2024-03-02T06:10:06;9.30;62.30
84393;DHT22;74592;48.846;2.358;2024-03-02T06:12:35;9.30;63.20
84393;DHT22;74592;48.846;2.358;2024-03-02T06:15:01;9.20;62.20
84393;DHT22;74592;48.846;2.358;2024-03-02T06:17:27;9.20;63.60
84393;DHT22;74592;48.846;2.358;2024-03-02T06:19:52;9.30;64.30
84393;DHT22;74592;48.846;2.358;2024-03-02T06:22:18;9.30;63.30
84393;DHT22;74592;48.846;2.358;2024-03-02T06:24:44;9.30;64.00
84393;DHT22;74592;48.846;2.358;2024-03-02T06:27:10;9.20;62.30
84393;DHT22;74592;48.846;2.358;2024-03-02T06:29:36;9.20;63.20
84393;DHT22;74592;48.846;2.358;2024-03-02T06:32:02;9.20;63.30
84393;DHT22;74592;48.846;2.358;2024-03-02T06:34:27;9.30;63.80
84393;DHT22;74592;48.846;2.358;2024-03-02T06:36:53;9.40;62.50
84393;DHT22;74592;48.846;2.358;2024-03-02T06:39:19;9.40;63.20
84393;DHT22;74592;48.846;2.358;2024-03-02T06:41:45;9.50;64.60
84393;DHT22;74592;48.846;2.358;2024-03-02T06:44:13;9.40;62.40
84393;DHT22;74592;48.846;2.358;2024-03-02T06:46:39;9.40;62.90
84393;DHT22;74592;48.846;2.358;2024-03-02T06:49:04;9.50;61.50
84393;DHT22;74592;48.846;2.358;2024-03-02T06:51:30;9.40;62.00
84393;DHT22;74592;48.846;2.358;2024-03-02T06:53:58;9.40;63.20
84393;DHT22;74592;48.846;2.358;2024-03-02T06:56:24;9.30;65.90
84393;DHT22;74592;48.846;2.358;2024-03-02T06:58:49;9.40;63.40
84393;DHT22;74592;48.846;2.358;2024-03-02T07:01:15;9.50;63.40
84393;DHT22;74592;48.846;2.358;2024-03-02T07:03:41;9.60;63.80
84393;DHT22;74592;48.846;2.358;2024-03-02T07:06:07;9.60;63.10
84393;DHT22;74592;48.846;2.358;2024-03-02T07:08:35;9.60;63.90
84393;DHT22;74592;48.846;2.358;2024-03-02T07:11:01;9.70;62.80
84393;DHT22;74592;48.846;2.358;2024-03-02T07:13:26;9.80;63.60
84393;DHT22;74592;48.846;2.358;2024-03-02T07:15:55;9.70;63.00
84393;DHT22;74592;48.846;2.358;2024-03-02T07:18:36;9.70;61.80
84393;DHT22;74592;48.846;2.358;2024-03-02T07:21:12;9.70;65.20
84393;DHT22;74592;48.846;2.358;2024-03-02T07:23:38;9.80;63.50
84393;DHT22;74592;48.846;2.358;2024-03-02T07:26:04;9.80;62.70
84393;DHT22;74592;48.846;2.358;2024-03-02T07:28:29;9.80;64.20
84393;DHT22;74592;48.846;2.358;2024-03-02T07:31:04;9.90;62.30
84393;DHT22;74592;48.846;2.358;2024-03-02T07:33:32;9.80;61.80
84393;DHT22;74592;48.846;2.358;2024-03-02T07:35:59;9.80;62.50
84393;DHT22;74592;48.846;2.358;2024-03-02T07:38:28;9.90;62.20
84393;DHT22;74592;48.846;2.358;2024-03-02T07:40:54;9.90;61.80
84393;DHT22;74592;48.846;2.358;2024-03-02T07:43:21;10.00;64.10
84393;DHT22;74592;48.846;2.358;2024-03-02T07:45:47;10.00;60.60
84393;DHT22;74592;48.846;2.358;2024-03-02T07:48:13;10.10;62.50
84393;DHT22;74592;48.846;2.358;2024-03-02T07:50:39;10.10;60.70
84393;DHT22;74592;48.846;2.358;2024-03-02T07:53:05;10.20;62.80
84393;DHT22;74592;48.846;2.358;2024-03-02T07:55:31;10.10;61.50
84393;DHT22;74592;48.846;2.358;2024-03-02T07:57:57;10.00;60.40
84393;DHT22;74592;48.846;2.358;2024-03-02T08:00:23;10.00;62.20
84393;DHT22;74592;48.846;2.358;2024-03-02T08:02:50;10.10;63.60
84393;DHT22;74592;48.846;2.358;2024-03-02T08:05:19;10.10;62.20
84393;DHT22;74592;48.846;2.358;2024-03-02T08:07:45;10.10;63.20
84393;DHT22;74592;48.846;2.358;2024-03-02T08:10:11;10.20;61.20
84393;DHT22;74592;48.846;2.358;2024-03-02T08:12:37;10.20;62.00
84393;DHT22;74592;48.846;2.358;2024-03-02T08:15:03;10.30;62.10
84393;DHT22;74592;48.846;2.358;2024-03-02T08:17:29;10.20;62.40
84393;DHT22;74592;48.846;2.358;2024-03-02T08:19:55;10.30;63.70
84393;DHT22;74592;48.846;2.358;2024-03-02T08:22:21;10.30;61.40
84393;DHT22;74592;48.846;2.358;2024-03-02T08:24:47;10.30;62.10
84393;DHT22;74592;48.846;2.358;2024-03-02T08:27:12;10.20;63.00
84393;DHT22;74592;48.846;2.358;2024-03-02T08:29:38;10.30;62.70
84393;DHT22;74592;48.846;2.358;2024-03-02T08:32:05;10.20;62.50
84393;DHT22;74592;48.846;2.358;2024-03-02T08:34:31;10.20;62.80
84393;DHT22;74592;48.846;2.358;2024-03-02T08:36:57;10.10;62.10
84393;DHT22;74592;48.846;2.358;2024-03-02T08:39:23;10.20;61.90
84393;DHT22;74592;48.846;2.358;2024-03-02T08:41:48;10.30;61.50
84393;DHT22;74592;48.846;2.358;2024-03-02T08:44:14;10.40;61.10
84393;DHT22;74592;48.846;2.358;2024-03-02T08:46:40;10.40;62.30
84393;DHT22;74592;48.846;2.358;2024-03-02T08:49:06;10.40;61.90
84393;DHT22;74592;48.846;2.358;2024-03-02T08:51:32;10.40;63.10
84393;DHT22;74592;48.846;2.358;2024-03-02T08:54:01;10.20;60.90
84393;DHT22;74592;48.846;2.358;2024-03-02T08:57:01;10.30;61.80
84393;DHT22;74592;48.846;2.358;2024-03-02T08:59:33;10.30;61.50
84393;DHT22;74592;48.846;2.358;2024-03-02T09:01:59;10.10;61.30
84393;DHT22;74592;48.846;2.358;2024-03-02T09:04:25;10.10;62.80
84393;DHT22;74592;48.846;2.358;2024-03-02T09:06:50;10.00;62.10
84393;DHT22;74592;48.846;2.358;2024-03-02T09:09:16;10.10;64.70
84393;DHT22;74592;48.846;2.358;2024-03-02T09:11:42;10.00;63.30
84393;DHT22;74592;48.846;2.358;2024-03-02T09:14:08;10.00;65.30
84393;DHT22;74592;48.846;2.358;2024-03-02T09:16:33;9.90;64.90
84393;DHT22;74592;48.846;2.358;2024-03-02T09:18:59;9.80;66.30
84393;DHT22;74592;48.846;2.358;2024-03-02T09:21:26;9.90;65.60
84393;DHT22;74592;48.846;2.358;2024-03-02T09:23:51;9.80;66.60
84393;DHT22;74592;48.846;2.358;2024-03-02T09:26:17;9.70;67.20
84393;DHT22;74592;48.846;2.358;2024-03-02T09:28:45;9.70;67.90
84393;DHT22;74592;48.846;2.358;2024-03-02T09:31:13;9.70;70.10
84393;DHT22;74592;48.846;2.358;2024-03-02T09:33:39;9.80;69.90
84393;DHT22;74592;48.846;2.358;2024-03-02T09:36:05;9.80;68.70
84393;DHT22;74592;48.846;2.358;2024-03-02T09:38:34;9.90;68.80
84393;DHT22;74592;48.846;2.358;2024-03-02T09:41:00;9.90;69.00
84393;DHT22;74592;48.846;2.358;2024-03-02T09:43:26;9.90;69.10
84393;DHT22;74592;48.846;2.358;2024-03-02T09:45:52;9.80;71.10
84393;DHT22;74592;48.846;2.358;2024-03-02T09:48:18;9.80;72.10
84393;DHT22;74592;48.846;2.358;2024-03-02T09:50:46;9.70;72.00
84393;DHT22;74592;48.846;2.358;2024-03-02T09:53:12;9.80;73.40
84393;DHT22;74592;48.846;2.358;2024-03-02T09:55:39;9.90;73.20
84393;DHT22;74592;48.846;2.358;2024-03-02T09:58:09;10.00;72.20
84393;DHT22;74592;48.846;2.358;2024-03-02T10:00:34;9.90;71.70
84393;DHT22;74592;48.846;2.358;2024-03-02T10:03:00;10.00;71.50
84393;DHT22;74592;48.846;2.358;2024-03-02T10:05:27;10.20;70.40
84393;DHT22;74592;48.846;2.358;2024-03-02T10:08:00;10.20;71.30
84393;DHT22;74592;48.846;2.358;2024-03-02T10:10:38;10.20;70.10
84393;DHT22;74592;48.846;2.358;2024-03-02T10:13:11;10.20;69.50
84393;DHT22;74592;48.846;2.358;2024-03-02T10:15:41;10.40;69.80
84393;DHT22;74592;48.846;2.358;2024-03-02T10:18:11;10.50;69.20
84393;DHT22;74592;48.846;2.358;2024-03-02T10:20:38;10.70;68.70
84393;DHT22;74592;48.846;2.358;2024-03-02T10:23:30;10.90;69.60
84393;DHT22;74592;48.846;2.358;2024-03-02T10:26:25;11.00;67.40
84393;DHT22;74592;48.846;2.358;2024-03-02T10:28:54;11.00;67.50
84393;DHT22;74592;48.846;2.358;2024-03-02T10:31:45;11.10;66.70
84393;DHT22;74592;48.846;2.358;2024-03-02T10:34:21;11.00;66.60
84393;DHT22;74592;48.846;2.358;2024-03-02T10:36:50;11.00;68.50
84393;DHT22;74592;48.846;2.358;2024-03-02T10:39:17;11.00;67.80
84393;DHT22;74592;48.846;2.358;2024-03-02T10:41:46;10.90;67.80
84393;DHT22;74592;48.846;2.358;2024-03-02T10:44:19;11.00;67.50
84393;DHT22;74592;48.846;2.358;2024-03-02T10:46:50;10.90;66.80
84393;DHT22;74592;48.846;2.358;2024-03-02T10:49:17;11.10;66.20
84393;DHT22;74592;48.846;2.358;2024-03-02T10:51:43;11.10;67.50
84393;DHT22;74592;48.846;2.358;2024-03-02T10:54:20;11.00;67.80
84393;DHT22;74592;48.846;2.358;2024-03-02T10:56:55;10.80;68.70
84393;DHT22;74592;48.846;2.358;2024-03-02T10:59:34;10.80;68.40
84393;DHT22;74592;48.846;2.358;2024-03-02T11:17:46;10.30;72.00
84393;DHT22;74592;48.846;2.358;2024-03-02T11:20:13;10.20;70.20
84393;DHT22;74592;48.846;2.358;2024-03-02T11:22:40;10.20;70.70
84393;DHT22;74592;48.846;2.358;2024-03-02T11:25:26;10.20;71.30
84393;DHT22;74592;48.846;2.358;2024-03-02T11:33:05;10.50;70.90
84393;DHT22;74592;48.846;2.358;2024-03-02T11:35:41;10.50;70.10
84393;DHT22;74592;48.846;2.358;2024-03-02T11:38:14;10.70;72.00
84393;DHT22;74592;48.846;2.358;2024-03-02T11:40:40;10.80;70.40
84393;DHT22;74592;48.846;2.358;2024-03-02T11:43:07;10.80;70.30
84393;DHT22;74592;48.846;2.358;2024-03-02T11:45:33;10.90;67.60
84393;DHT22;74592;48.846;2.358;2024-03-02T11:48:08;10.70;66.80
84393;DHT22;74592;48.846;2.358;2024-03-02T11:50:49;10.60;68.10
84393;DHT22;74592;48.846;2.358;2024-03-02T11:53:15;10.60;70.90
84393;DHT22;74592;48.846;2.358;2024-03-02T11:55:44;10.50;70.20
84393;DHT22;74592;48.846;2.358;2024-03-02T11:58:14;10.60;70.40
84393;DHT22;74592;48.846;2.358;2024-03-02T12:00:40;10.60;68.90
84393;DHT22;74592;48.846;2.358;2024-03-02T12:03:08;10.60;68.90
84393;DHT22;74592;48.846;2.358;2024-03-02T12:05:35;10.60;68.50
84393;DHT22;74592;48.846;2.358;2024-03-02T12:08:05;10.50;69.20
84393;DHT22;74592;48.846;2.358;2024-03-02T12:10:35;10.60;69.40
84393;DHT22;74592;48.846;2.358;2024-03-02T12:13:03;10.60;70.00
84393;DHT22;74592;48.846;2.358;2024-03-02T12:15:33;10.50;67.50
84393;DHT22;74592;48.846;2.358;2024-03-02T12:18:06;10.60;69.10
84393;DHT22;74592;48.846;2.358;2024-03-02T12:20:38;10.60;69.80
84393;DHT22;74592;48.846;2.358;2024-03-02T12:23:05;10.50;69.20
84393;DHT22;74592;48.846;2.358;2024-03-02T12:25:31;10.50;70.40
84393;DHT22;74592;48.846;2.358;2024-03-02T12:28:00;10.60;69.80
84393;DHT22;74592;48.846;2.358;2024-03-02T12:30:30;10.50;69.80
84393;DHT22;74592;48.846;2.358;2024-03-02T12:32:56;10.60;71.40
84393;DHT22;74592;48.846;2.358;2024-03-02T12:35:22;10.50;69.90
84393;DHT22;74592;48.846;2.358;2024-03-02T12:37:51;10.50;70.20
84393;DHT22;74592;48.846;2.358;2024-03-02T12:40:18;10.50;69.90
84393;DHT22;74592;48.846;2.358;2024-03-02T12:42:45;10.60;70.20
84393;DHT22;74592;48.846;2.358;2024-03-02T12:45:11;10.60;70.10
84393;DHT22;74592;48.846;2.358;2024-03-02T12:47:39;10.60;68.00
84393;DHT22;74592;48.846;2.358;2024-03-02T12:50:06;10.50;67.20
84393;DHT22;74592;48.846;2.358;2024-03-02T12:52:32;10.70;66.10
84393;DHT22;74592;48.846;2.358;2024-03-02T12:54:59;10.80;67.80
84393;DHT22;74592;48.846;2.358;2024-03-02T12:57:26;10.90;68.30
84393;DHT22;74592;48.846;2.358;2024-03-02T13:00:05;10.90;68.50
84393;DHT22;74592;48.846;2.358;2024-03-02T13:02:39;11.00;65.70
84393;DHT22;74592;48.846;2.358;2024-03-02T13:05:06;11.00;66.60
84393;DHT22;74592;48.846;2.358;2024-03-02T13:07:37;10.90;66.00
84393;DHT22;74592;48.846;2.358;2024-03-02T13:10:04;10.70;66.00
84393;DHT22;74592;48.846;2.358;2024-03-02T13:12:30;10.70;65.30
84393;DHT22;74592;48.846;2.358;2024-03-02T13:14:58;10.70;66.40
84393;DHT22;74592;48.846;2.358;2024-03-02T13:17:24;10.80;66.90
84393;DHT22;74592;48.846;2.358;2024-03-02T13:19:59;10.70;65.00
84393;DHT22;74592;48.846;2.358;2024-03-02T13:22:26;10.70;65.30
84393;DHT22;74592;48.846;2.358;2024-03-02T13:24:52;10.70;64.90
84393;DHT22;74592;48.846;2.358;2024-03-02T13:27:20;10.80;65.80
84393;DHT22;74592;48.846;2.358;2024-03-02T13:29:49;10.90;64.60
84393;DHT22;74592;48.846;2.358;2024-03-02T13:32:17;10.90;65.00
84393;DHT22;74592;48.846;2.358;2024-03-02T13:34:49;10.90;64.10
84393;DHT22;74592;48.846;2.358;2024-03-02T13:37:14;10.90;65.50
84393;DHT22;74592;48.846;2.358;2024-03-02T13:39:40;10.90;67.10
84393;DHT22;74592;48.846;2.358;2024-03-02T13:42:11;11.00;65.70
84393;DHT22;74592;48.846;2.358;2024-03-02T13:44:39;10.90;67.80
84393;DHT22;74592;48.846;2.358;2024-03-02T13:47:05;11.00;67.10
84393;DHT22;74592;48.846;2.358;2024-03-02T13:49:33;11.10;67.30
84393;DHT22;74592;48.846;2.358;2024-03-02T13:52:03;11.20;67.10
84393;DHT22;74592;48.846;2.358;2024-03-02T13:55:07;11.20;64.80
84393;DHT22;74592;48.846;2.358;2024-03-02T13:57:33;11.20;67.40
84393;DHT22;74592;48.846;2.358;2024-03-02T14:03:06;11.30;68.20
84393;DHT22;74592;48.846;2.358;2024-03-02T14:05:33;11.20;66.00
84393;DHT22;74592;48.846;2.358;2024-03-02T14:07:58;11.30;68.10
84393;DHT22;74592;48.846;2.358;2024-03-02T14:10:26;11.30;69.30
84393;DHT22;74592;48.846;2.358;2024-03-02T14:12:52;11.40;69.70
84393;DHT22;74592;48.846;2.358;2024-03-02T14:18:56;11.50;67.90
84393;DHT22;74592;48.846;2.358;2024-03-02T14:21:25;11.50;66.50
84393;DHT22;74592;48.846;2.358;2024-03-02T14:23:54;11.40;65.80
84393;DHT22;74592;48.846;2.358;2024-03-02T14:26:35;11.30;66.50
84393;DHT22;74592;48.846;2.358;2024-03-02T14:29:10;11.30;67.60
84393;DHT22;74592;48.846;2.358;2024-03-02T14:31:39;11.40;68.90
84393;DHT22;74592;48.846;2.358;2024-03-02T14:34:07;11.40;67.70
84393;DHT22;74592;48.846;2.358;2024-03-02T14:36:33;11.30;67.10
84393;DHT22;74592;48.846;2.358;2024-03-02T14:38:59;11.20;68.40
84393;DHT22;74592;48.846;2.358;2024-03-02T14:41:25;11.20;68.40
84393;DHT22;74592;48.846;2.358;2024-03-02T14:43:51;11.20;70.00
84393;DHT22;74592;48.846;2.358;2024-03-02T14:46:17;11.30;69.40
84393;DHT22;74592;48.846;2.358;2024-03-02T14:48:44;11.20;68.60
84393;DHT22;74592;48.846;2.358;2024-03-02T14:51:11;11.20;70.80
84393;DHT22;74592;48.846;2.358;2024-03-02T14:53:36;11.20;69.60
84393;DHT22;74592;48.846;2.358;2024-03-02T14:56:04;11.30;71.30
84393;DHT22;74592;48.846;2.358;2024-03-02T14:58:30;11.40;71.70
84393;DHT22;74592;48.846;2.358;2024-03-02T15:00:55;11.50;70.40
84393;DHT22;74592;48.846;2.358;2024-03-02T15:03:21;11.40;70.00
84393;DHT22;74592;48.846;2.358;2024-03-02T15:05:47;11.40;71.20
84393;DHT22;74592;48.846;2.358;2024-03-02T15:08:17;11.40;70.60
84393;DHT22;74592;48.846;2.358;2024-03-02T15:10:42;11.30;69.80
84393;DHT22;74592;48.846;2.358;2024-03-02T15:13:08;11.30;72.20
84393;DHT22;74592;48.846;2.358;2024-03-02T15:15:34;11.20;71.80
84393;DHT22;74592;48.846;2.358;2024-03-02T15:17:59;11.10;73.90
84393;DHT22;74592;48.846;2.358;2024-03-02T15:20:25;11.10;74.70
84393;DHT22;74592;48.846;2.358;2024-03-02T15:22:51;11.10;75.00
84393;DHT22;74592;48.846;2.358;2024-03-02T15:25:18;11.10;72.40
84393;DHT22;74592;48.846;2.358;2024-03-02T15:27:43;11.10;73.10
84393;DHT22;74592;48.846;2.358;2024-03-02T15:30:09;11.10;69.60
84393;DHT22;74592;48.846;2.358;2024-03-02T15:32:35;11.20;68.00
84393;DHT22;74592;48.846;2.358;2024-03-02T15:35:02;11.20;71.10
84393;DHT22;74592;48.846;2.358;2024-03-02T15:37:28;11.10;72.30
84393;DHT22;74592;48.846;2.358;2024-03-02T15:39:54;11.20;73.30
84393;DHT22;74592;48.846;2.358;2024-03-02T15:42:19;11.20;72.40
84393;DHT22;74592;48.846;2.358;2024-03-02T15:44:48;11.10;70.90
84393;DHT22;74592;48.846;2.358;2024-03-02T15:47:14;11.10;70.70
84393;DHT22;74592;48.846;2.358;2024-03-02T15:49:40;11.10;72.70
84393;DHT22;74592;48.846;2.358;2024-03-02T15:52:09;11.00;69.60
84393;DHT22;74592;48.846;2.358;2024-03-02T15:54:41;11.00;71.20
84393;DHT22;74592;48.846;2.358;2024-03-02T15:57:09;11.10;70.50
84393;DHT22;74592;48.846;2.358;2024-03-02T15:59:34;11.00;71.60
84393;DHT22;74592;48.846;2.358;2024-03-02T16:02:00;11.10;71.50
84393;DHT22;74592;48.846;2.358;2024-03-02T16:04:26;11.20;71.40
84393;DHT22;74592;48.846;2.358;2024-03-02T16:06:54;11.10;69.20
84393;DHT22;74592;48.846;2.358;2024-03-02T16:09:19;11.10;67.60
84393;DHT22;74592;48.846;2.358;2024-03-02T16:11:45;11.20;69.80
84393;DHT22;74592;48.846;2.358;2024-03-02T16:14:14;11.10;71.40
84393;DHT22;74592;48.846;2.358;2024-03-02T16:16:41;11.20;72.20
84393;DHT22;74592;48.846;2.358;2024-03-02T16:19:06;11.10;70.20
84393;DHT22;74592;48.846;2.358;2024-03-02T16:21:32;11.10;72.00
84393;DHT22;74592;48.846;2.358;2024-03-02T16:23:57;11.10;71.60
84393;DHT22;74592;48.846;2.358;2024-03-02T16:26:24;11.10;71.80
84393;DHT22;74592;48.846;2.358;2024-03-02T16:28:50;11.20;70.80
84393;DHT22;74592;48.846;2.358;2024-03-02T16:31:15;11.20;71.80
84393;DHT22;74592;48.846;2.358;2024-03-02T16:33:46;11.20;71.60
84393;DHT22;74592;48.846;2.358;2024-03-02T16:36:11;11.10;69.10
84393;DHT22;74592;48.846;2.358;2024-03-02T16:38:37;11.10;68.30
84393;DHT22;74592;48.846;2.358;2024-03-02T16:41:03;11.00;63.40
84393;DHT22;74592;48.846;2.358;2024-03-02T16:43:29;10.90;67.30
84393;DHT22;74592;48.846;2.358;2024-03-02T16:45:56;10.80;64.80
84393;DHT22;74592;48.846;2.358;2024-03-02T16:48:21;10.70;64.90
84393;DHT22;74592;48.846;2.358;2024-03-02T16:50:47;10.60;68.40
84393;DHT22;74592;48.846;2.358;2024-03-02T16:53:13;10.50;69.30
84393;DHT22;74592;48.846;2.358;2024-03-02T16:55:41;10.40;69.90
84393;DHT22;74592;48.846;2.358;2024-03-02T16:58:07;10.30;71.60
84393;DHT22;74592;48.846;2.358;2024-03-02T17:00:32;10.20;69.60
84393;DHT22;74592;48.846;2.358;2024-03-02T17:02:58;10.20;72.20
84393;DHT22;74592;48.846;2.358;2024-03-02T17:05:24;10.10;70.90
84393;DHT22;74592;48.846;2.358;2024-03-02T17:07:50;10.10;73.60
84393;DHT22;74592;48.846;2.358;2024-03-02T17:10:16;10.10;73.90
84393;DHT22;74592;48.846;2.358;2024-03-02T17:12:42;10.10;73.80
84393;DHT22;74592;48.846;2.358;2024-03-02T17:15:10;10.10;72.20
84393;DHT22;74592;48.846;2.358;2024-03-02T17:17:38;10.10;73.80
84393;DHT22;74592;48.846;2.358;2024-03-02T17:20:05;10.20;69.40
84393;DHT22;74592;48.846;2.358;2024-03-02T17:22:34;10.20;66.80
84393;DHT22;74592;48.846;2.358;2024-03-02T17:25:00;10.20;69.50
84393;DHT22;74592;48.846;2.358;2024-03-02T17:27:26;10.20;71.90
84393;DHT22;74592;48.846;2.358;2024-03-02T17:29:56;10.10;71.00
84393;DHT22;74592;48.846;2.358;2024-03-02T17:32:21;10.00;69.90
84393;DHT22;74592;48.846;2.358;2024-03-02T17:34:50;10.00;72.40
84393;DHT22;74592;48.846;2.358;2024-03-02T17:37:19;9.90;73.30
84393;DHT22;74592;48.846;2.358;2024-03-02T17:39:44;9.90;72.40
84393;DHT22;74592;48.846;2.358;2024-03-02T17:42:10;9.90;71.30
84393;DHT22;74592;48.846;2.358;2024-03-02T17:44:36;9.80;74.20
84393;DHT22;74592;48.846;2.358;2024-03-02T17:47:02;9.80;72.50
84393;DHT22;74592;48.846;2.358;2024-03-02T17:49:28;9.80;73.00
84393;DHT22;74592;48.846;2.358;2024-03-02T17:51:53;9.80;73.50
84393;DHT22;74592;48.846;2.358;2024-03-02T17:54:19;9.80;70.40
84393;DHT22;74592;48.846;2.358;2024-03-02T17:56:45;9.80;71.70
84393;DHT22;74592;48.846;2.358;2024-03-02T17:59:11;9.80;73.40
84393;DHT22;74592;48.846;2.358;2024-03-02T18:01:37;9.80;71.80
84393;DHT22;74592;48.846;2.358;2024-03-02T18:04:05;9.80;70.50
84393;DHT22;74592;48.846;2.358;2024-03-02T18:06:33;9.80;71.40
84393;DHT22;74592;48.846;2.358;2024-03-02T18:09:02;9.90;73.00
84393;DHT22;74592;48.846;2.358;2024-03-02T18:11:28;9.80;71.20
84393;DHT22;74592;48.846;2.358;2024-03-02T18:13:57;9.90;72.60
84393;DHT22;74592;48.846;2.358;2024-03-02T18:16:23;9.80;71.50
84393;DHT22;74592;48.846;2.358;2024-03-02T18:18:53;9.80;70.40
84393;DHT22;74592;48.846;2.358;2024-03-02T18:21:24;9.80;71.10
84393;DHT22;74592;48.846;2.358;2024-03-02T18:23:49;9.80;68.50
84393;DHT22;74592;48.846;2.358;2024-03-02T18:26:15;9.80;69.40
84393;DHT22;74592;48.846;2.358;2024-03-02T18:28:47;9.90;70.80
84393;DHT22;74592;48.846;2.358;2024-03-02T18:31:15;9.90;68.50
84393;DHT22;74592;48.846;2.358;2024-03-02T18:33:44;9.90;68.80
84393;DHT22;74592;48.846;2.358;2024-03-02T18:36:10;9.90;69.20
84393;DHT22;74592;48.846;2.358;2024-03-02T18:38:35;9.90;68.50
84393;DHT22;74592;48.846;2.358;2024-03-02T18:41:01;9.90;69.20
84393;DHT22;74592;48.846;2.358;2024-03-02T18:43:26;9.90;69.60
84393;DHT22;74592;48.846;2.358;2024-03-02T18:45:52;9.90;68.20
84393;DHT22;74592;48.846;2.358;2024-03-02T18:48:20;9.90;68.90